createdAt,value
2019-01-21T00:00:57.224Z,-1.90
2019-01-21T00:05:11.909Z,-1.70
2019-01-21T00:09:26.239Z,-1.30
2019-01-21T00:13:41.001Z,-1.60
2019-01-21T00:17:55.355Z,-1.40
2019-01-21T00:22:09.834Z,-1.60
2019-01-21T00:26:24.440Z,-2.00
2019-01-21T00:30:38.842Z,-1.80
2019-01-21T00:34:53.532Z,-2.00
2019-01-21T00:38:54.420Z,-1.80
2019-01-21T00:43:15.130Z,-2.40
2019-01-21T00:47:36.001Z,-2.00
2019-01-21T00:51:56.768Z,-2.10
2019-01-21T00:56:10.639Z,-2.20
2019-01-21T01:00:25.257Z,-2.80
2019-01-21T01:04:39.768Z,-2.70
2019-01-21T01:08:40.939Z,-2.40
2019-01-21T01:13:01.704Z,-2.00
2019-01-21T01:17:22.449Z,-2.10
2019-01-21T01:21:43.195Z,-1.70
2019-01-21T01:26:04.047Z,-1.70
2019-01-21T01:30:24.993Z,-1.60
2019-01-21T01:34:25.850Z,-2.00
2019-01-21T01:38:26.714Z,-1.80
2019-01-21T01:42:47.555Z,-1.90
2019-01-21T01:47:08.398Z,-2.00
2019-01-21T01:51:29.235Z,-2.10
2019-01-21T01:55:50.076Z,-2.10
2019-01-21T01:59:50.964Z,-2.20
2019-01-21T02:04:05.048Z,-2.20
2019-01-21T02:08:19.659Z,-2.50
2019-01-21T02:12:34.058Z,-2.20
2019-01-21T02:16:35.257Z,-2.70
2019-01-21T02:21:17.751Z,-2.60
2019-01-21T02:25:58.393Z,-3.10
2019-01-21T02:30:39.109Z,-3.20
2019-01-21T02:35:19.927Z,-2.50
2019-01-21T02:40:00.536Z,-2.30
2019-01-21T02:44:43.073Z,-2.60
2019-01-21T02:49:23.707Z,-3.20
2019-01-21T02:54:04.315Z,-2.90
2019-01-21T02:58:46.819Z,-2.70
2019-01-21T03:03:00.753Z,-2.40
2019-01-21T03:07:15.477Z,-2.50
2019-01-21T03:11:29.223Z,-2.50
2019-01-21T03:15:44.188Z,-2.50
2019-01-21T03:20:24.788Z,-3.10
2019-01-21T03:25:05.396Z,-3.60
2019-01-21T03:29:48.248Z,-3.00
2019-01-21T03:34:28.959Z,-3.10
2019-01-21T03:39:09.670Z,-3.00
2019-01-21T03:43:50.263Z,-3.10
2019-01-21T03:48:32.804Z,-4.00
2019-01-21T03:53:13.433Z,-3.90
2019-01-21T03:57:55.978Z,-3.50
2019-01-21T04:02:10.516Z,-2.90
2019-01-21T04:06:53.027Z,-2.70
2019-01-21T04:11:33.713Z,-2.90
2019-01-21T04:16:16.517Z,-3.00
2019-01-21T04:20:57.148Z,-3.00
2019-01-21T04:25:37.848Z,-3.00
2019-01-21T04:30:18.491Z,-3.60
2019-01-21T04:34:59.182Z,-3.20
2019-01-21T04:39:39.801Z,-3.80
2019-01-21T04:44:20.456Z,-3.20
2019-01-21T04:49:03.066Z,-2.50
2019-01-21T04:53:45.583Z,-2.90
2019-01-21T04:58:26.214Z,-3.00
2019-01-21T05:02:41.004Z,-2.90
2019-01-21T05:06:55.512Z,-3.30
2019-01-21T05:11:36.132Z,-3.40
2019-01-21T05:16:19.043Z,-3.60
2019-01-21T05:20:59.667Z,-3.40
2019-01-21T05:25:40.256Z,-3.30
2019-01-21T05:30:21.201Z,-3.10
2019-01-21T05:35:02.056Z,-3.10
2019-01-21T05:39:17.090Z,-3.30
2019-01-21T05:43:31.736Z,-2.90
2019-01-21T05:47:46.321Z,-3.10
2019-01-21T05:52:00.832Z,-3.10
2019-01-21T05:56:15.170Z,-3.20
2019-01-21T06:00:28.953Z,-3.10
2019-01-21T06:04:43.683Z,-3.40
2019-01-21T06:08:57.510Z,-2.70
2019-01-21T06:13:12.101Z,-3.30
2019-01-21T06:17:26.600Z,-3.30
2019-01-21T06:21:41.204Z,-3.10
2019-01-21T06:25:55.911Z,-3.30
2019-01-21T06:30:10.277Z,-3.50
2019-01-21T06:34:24.803Z,-3.20
2019-01-21T06:38:39.366Z,-3.40
2019-01-21T06:42:53.645Z,-3.20
2019-01-21T06:47:08.111Z,-3.10
2019-01-21T06:51:22.432Z,-3.40
2019-01-21T06:55:36.811Z,-3.60
2019-01-21T06:59:51.225Z,-3.60
2019-01-21T07:04:05.076Z,-3.90
2019-01-21T07:08:19.659Z,-3.80
2019-01-21T07:12:34.080Z,-4.50
2019-01-21T07:16:48.931Z,-4.20
2019-01-21T07:21:02.952Z,-4.60
2019-01-21T07:25:17.261Z,-3.40
2019-01-21T07:29:31.945Z,-3.30
2019-01-21T07:33:46.377Z,-2.90
2019-01-21T07:38:01.151Z,-2.70
2019-01-21T07:42:15.919Z,-2.50
2019-01-21T07:46:30.167Z,-2.40
2019-01-21T07:51:12.825Z,-1.90
2019-01-21T07:55:53.432Z,-1.70
2019-01-21T08:00:34.059Z,-1.50
2019-01-21T08:04:48.669Z,-1.60
2019-01-21T08:09:03.579Z,-1.30
2019-01-21T08:13:17.607Z,-1.20
2019-01-21T08:17:32.207Z,-1.00
2019-01-21T08:21:46.728Z,-0.70
2019-01-21T08:26:01.389Z,-0.50
2019-01-21T08:30:15.849Z,-0.30
2019-01-21T08:34:30.195Z,-1.00
2019-01-21T08:38:44.751Z,-0.60
2019-01-21T08:42:59.374Z,0.20
2019-01-21T08:47:14.067Z,0.30
2019-01-21T08:51:28.386Z,-0.50
2019-01-21T08:55:43.010Z,0.00
2019-01-21T08:59:57.674Z,-0.10
2019-01-21T09:04:12.154Z,-0.40
2019-01-21T09:08:26.554Z,-0.10
2019-01-21T09:12:41.185Z,0.10
2019-01-21T09:16:55.826Z,0.70
2019-01-21T09:21:10.355Z,0.60
2019-01-21T09:25:24.244Z,0.90
2019-01-21T09:29:38.730Z,1.00
2019-01-21T09:33:53.120Z,1.50
2019-01-21T09:38:07.778Z,1.70
2019-01-21T09:42:21.984Z,1.50
2019-01-21T09:46:36.395Z,1.30
2019-01-21T09:50:59.080Z,1.80
2019-01-21T09:55:41.603Z,2.00
2019-01-21T10:00:24.129Z,1.30
2019-01-21T10:04:38.423Z,2.10
2019-01-21T10:08:52.835Z,1.40
2019-01-21T10:13:07.290Z,2.10
2019-01-21T10:17:21.892Z,2.60
2019-01-21T10:21:36.448Z,2.30
2019-01-21T10:25:50.727Z,2.50
2019-01-21T10:30:31.380Z,-1.40
2019-01-21T10:35:12.058Z,-1.00
2019-01-21T10:39:26.294Z,-0.70
2019-01-21T10:43:40.776Z,-0.90
2019-01-21T10:47:55.218Z,-1.50
2019-01-21T10:52:09.873Z,-1.00
2019-01-21T10:56:52.428Z,-1.20
2019-01-21T11:01:33.053Z,-1.70
2019-01-21T11:06:15.572Z,0.80
2019-01-21T11:10:56.184Z,0.00
2019-01-21T11:15:36.802Z,0.60
2019-01-21T11:20:17.413Z,0.20
2019-01-21T11:24:58.115Z,1.90
2019-01-21T11:29:40.652Z,1.20
2019-01-21T11:34:23.152Z,1.30
2019-01-21T11:39:05.698Z,1.00
2019-01-21T11:43:48.400Z,1.10
2019-01-21T11:48:30.958Z,0.40
2019-01-21T11:53:13.478Z,-0.40
2019-01-21T12:02:03.709Z,1.00
2019-01-21T12:06:18.531Z,2.00
2019-01-21T12:10:59.268Z,2.50
2019-01-21T12:15:41.808Z,2.10
2019-01-21T12:20:24.458Z,1.80
2019-01-21T12:24:45.515Z,3.60
2019-01-21T12:29:26.123Z,4.40
2019-01-21T12:34:08.656Z,4.60
2019-01-21T12:38:31.343Z,4.30
2019-01-21T12:43:12.096Z,5.10
2019-01-21T12:47:52.829Z,6.30
2019-01-21T12:52:35.377Z,6.50
2019-01-21T12:57:16.111Z,4.70
2019-01-21T13:01:57.987Z,5.60
2019-01-21T13:06:38.694Z,6.10
2019-01-21T13:11:21.191Z,6.70
2019-01-21T13:16:01.821Z,7.80
2019-01-21T13:20:44.382Z,8.10
2019-01-21T13:25:24.979Z,8.00
2019-01-21T13:30:07.479Z,7.20
2019-01-21T13:34:50.023Z,6.90
2019-01-21T13:39:32.644Z,7.10
2019-01-21T13:44:14.073Z,7.20
2019-01-21T13:48:54.709Z,7.00
2019-01-21T13:53:35.373Z,7.10
2019-01-21T13:58:16.083Z,7.40
2019-01-21T14:02:30.647Z,6.00
2019-01-21T14:06:44.375Z,6.50
2019-01-21T14:10:58.815Z,5.90
2019-01-21T14:15:13.247Z,5.90
2019-01-21T14:19:27.730Z,6.40
2019-01-21T14:23:41.595Z,6.30
2019-01-21T14:27:56.232Z,6.50
2019-01-21T14:32:10.978Z,6.80
2019-01-21T14:36:25.611Z,6.10
2019-01-21T14:41:10.976Z,6.50
2019-01-21T14:45:53.642Z,6.60
2019-01-21T14:50:16.334Z,6.30
2019-01-21T14:54:57.165Z,5.80
2019-01-21T14:59:38.837Z,5.70
2019-01-21T15:04:21.840Z,5.90
2019-01-21T15:09:04.544Z,5.10
2019-01-21T15:13:45.336Z,5.40
2019-01-21T15:18:26.081Z,5.70
2019-01-21T15:23:07.219Z,5.60
2019-01-21T15:27:49.808Z,5.50
2019-01-21T15:32:30.484Z,5.60
2019-01-21T15:37:13.173Z,5.00
2019-01-21T15:41:55.817Z,4.20
2019-01-21T15:46:36.470Z,4.00
2019-01-21T15:51:17.206Z,4.30
2019-01-21T15:55:57.901Z,4.60
2019-01-21T16:00:12.463Z,4.40
2019-01-21T16:04:26.842Z,4.40
2019-01-21T16:08:40.771Z,4.20
2019-01-21T16:12:55.222Z,4.20
2019-01-21T16:17:09.903Z,4.20
2019-01-21T16:21:23.965Z,4.00
2019-01-21T16:25:37.982Z,3.80
2019-01-21T16:29:52.638Z,3.70
2019-01-21T16:34:07.235Z,3.60
2019-01-21T16:38:21.879Z,3.70
2019-01-21T16:42:36.176Z,3.40
2019-01-21T16:46:50.794Z,2.90
2019-01-21T16:51:05.335Z,2.80
2019-01-21T16:55:19.847Z,2.70
2019-01-21T16:59:34.249Z,2.30
2019-01-21T17:03:49.179Z,2.60
2019-01-21T17:08:03.873Z,3.00
2019-01-21T17:12:18.355Z,3.00
2019-01-21T17:16:32.677Z,2.40
2019-01-21T17:20:47.388Z,2.60
2019-01-21T17:25:01.280Z,2.40
2019-01-21T17:29:16.057Z,2.30
2019-01-21T17:33:30.427Z,2.10
2019-01-21T17:37:45.042Z,2.10
2019-01-21T17:41:59.478Z,2.00
2019-01-21T17:46:14.140Z,1.90
2019-01-21T17:50:28.453Z,1.70
2019-01-21T17:54:34.788Z,1.90
2019-01-21T17:58:52.040Z,1.80
2019-01-21T18:03:05.958Z,1.40
2019-01-21T18:07:20.890Z,1.70
2019-01-21T18:11:41.020Z,1.40
2019-01-21T18:15:51.352Z,1.20
2019-01-21T18:19:52.271Z,1.20
2019-01-21T18:24:13.020Z,1.80
2019-01-21T18:28:33.905Z,0.50
2019-01-21T18:32:54.802Z,0.60
2019-01-21T18:37:15.580Z,0.60
2019-01-21T18:41:29.557Z,1.10
2019-01-21T18:45:30.494Z,0.80
2019-01-21T18:49:51.458Z,0.70
2019-01-21T18:54:12.200Z,0.70
2019-01-21T18:58:32.958Z,1.10
2019-01-21T19:02:47.766Z,1.00
2019-01-21T19:07:02.279Z,0.90
2019-01-21T19:11:03.294Z,0.90
2019-01-21T19:20:24.878Z,0.70
2019-01-21T19:24:45.771Z,0.50
2019-01-21T19:28:46.749Z,0.30
2019-01-21T19:37:36.655Z,-0.30
2019-01-21T19:41:37.621Z,-0.50
2019-01-21T19:45:38.525Z,-0.60
2019-01-21T19:49:59.280Z,-0.10
2019-01-21T19:54:20.255Z,-0.40
2019-01-21T19:58:41.206Z,-0.60
2019-01-21T20:02:55.841Z,0.10
2019-01-21T20:06:56.857Z,0.20
2019-01-21T20:11:17.931Z,0.30
2019-01-21T20:15:38.863Z,0.20
2019-01-21T20:20:00.462Z,0.00
2019-01-21T20:24:21.312Z,0.00
2019-01-21T20:28:42.066Z,-0.20
2019-01-21T20:33:03.045Z,-0.40
2019-01-21T20:37:23.826Z,-0.80
2019-01-21T20:41:24.842Z,-0.80
2019-01-21T20:45:45.778Z,-0.90
2019-01-21T20:49:46.680Z,-0.70
2019-01-21T20:54:07.563Z,-0.40
2019-01-21T20:58:28.494Z,-0.50
2019-01-21T21:02:29.490Z,-0.60
2019-01-21T21:06:50.355Z,-0.80
2019-01-21T21:11:11.169Z,-0.80
2019-01-21T21:15:31.944Z,-1.30
2019-01-21T21:19:32.894Z,-1.80
2019-01-21T21:23:33.839Z,-1.50
2019-01-21T21:27:34.977Z,-0.80
2019-01-21T21:31:55.886Z,-0.90
2019-01-21T21:35:56.857Z,-0.80
2019-01-21T21:40:18.494Z,-1.00
2019-01-21T21:44:39.238Z,-0.80
2019-01-21T21:48:59.967Z,-1.20
2019-01-21T21:53:20.779Z,-1.60
2019-01-21T21:57:41.823Z,-1.80
2019-01-21T22:02:02.841Z,-1.10
2019-01-21T22:06:04.046Z,-1.70
2019-01-21T22:10:25.478Z,-1.50
2019-01-21T22:14:26.349Z,-1.50
2019-01-21T22:18:47.170Z,-1.70
2019-01-21T22:23:07.927Z,-2.10
2019-01-21T22:27:28.773Z,-2.10
2019-01-21T22:31:49.504Z,-1.40
2019-01-21T22:36:10.309Z,-2.00
2019-01-21T22:40:31.159Z,-1.50
2019-01-21T22:44:51.977Z,-1.20
2019-01-21T22:49:12.815Z,-1.20
2019-01-21T22:53:33.705Z,-1.40
2019-01-21T22:57:54.644Z,-2.00
2019-01-21T23:02:09.487Z,-1.90
2019-01-21T23:06:23.531Z,-1.70
2019-01-21T23:10:37.460Z,-2.00
2019-01-21T23:14:52.057Z,-1.70
2019-01-21T23:19:05.871Z,-1.70
2019-01-21T23:23:20.734Z,-1.80
2019-01-21T23:27:21.609Z,-1.70
2019-01-21T23:31:42.454Z,-1.70
2019-01-21T23:36:03.411Z,-1.90
2019-01-21T23:40:24.289Z,-1.90
2019-01-21T23:44:38.189Z,-2.60
2019-01-21T23:48:39.157Z,-2.20
2019-01-21T23:52:59.908Z,-2.50
2019-01-21T23:57:20.778Z,-2.00
